sensor_id;sensor_type;location;lat;lon;timestamp;temperature;humidity
21267;DHT22;10791;53.108;18.326;2023-01-15T00:04:58;6.90;99.90
21267;DHT22;10791;53.108;18.326;2023-01-15T00:10:05;7.00;99.90
21267;DHT22;10791;53.108;18.326;2023-01-15T00:15:12;7.00;99.90
21267;DHT22;10791;53.108;18.326;2023-01-15T00:20:16;7.10;99.90
21267;DHT22;10791;53.108;18.326;2023-01-15T00:25:22;7.10;99.90
21267;DHT22;10791;53.108;18.326;2023-01-15T00:30:47;7.20;99.90
21267;DHT22;10791;53.108;18.326;2023-01-15T00:35:53;7.20;99.90
21267;DHT22;10791;53.108;18.326;2023-01-15T00:41:01;7.20;99.90
21267;DHT22;10791;53.108;18.326;2023-01-15T00:46:05;7.30;99.90
21267;DHT22;10791;53.108;18.326;2023-01-15T00:51:13;7.30;99.90
21267;DHT22;10791;53.108;18.326;2023-01-15T00:56:18;7.30;99.90
21267;DHT22;10791;53.108;18.326;2023-01-15T01:01:25;7.40;99.90
21267;DHT22;10791;53.108;18.326;2023-01-15T01:06:29;7.40;99.90
21267;DHT22;10791;53.108;18.326;2023-01-15T01:11:37;7.40;99.90
21267;DHT22;10791;53.108;18.326;2023-01-15T01:16:41;7.40;99.90
21267;DHT22;10791;53.108;18.326;2023-01-15T01:21:46;7.40;99.90
21267;DHT22;10791;53.108;18.326;2023-01-15T01:26:52;7.50;99.90
21267;DHT22;10791;53.108;18.326;2023-01-15T01:31:56;7.60;99.90
21267;DHT22;10791;53.108;18.326;2023-01-15T01:37:00;7.60;99.90
21267;DHT22;10791;53.108;18.326;2023-01-15T01:42:14;7.60;99.90
21267;DHT22;10791;53.108;18.326;2023-01-15T01:47:24;7.80;99.90
21267;DHT22;10791;53.108;18.326;2023-01-15T01:52:35;7.80;99.90
21267;DHT22;10791;53.108;18.326;2023-01-15T01:57:41;7.80;99.90
21267;DHT22;10791;53.108;18.326;2023-01-15T02:02:48;7.90;99.90
21267;DHT22;10791;53.108;18.326;2023-01-15T02:07:53;7.90;99.90
21267;DHT22;10791;53.108;18.326;2023-01-15T02:13:11;7.90;99.90
21267;DHT22;10791;53.108;18.326;2023-01-15T02:18:35;8.00;99.90
21267;DHT22;10791;53.108;18.326;2023-01-15T02:23:51;8.00;99.90
21267;DHT22;10791;53.108;18.326;2023-01-15T02:29:00;8.00;99.90
21267;DHT22;10791;53.108;18.326;2023-01-15T02:34:15;8.00;99.90
21267;DHT22;10791;53.108;18.326;2023-01-15T02:39:24;8.00;99.90
21267;DHT22;10791;53.108;18.326;2023-01-15T02:44:39;8.10;99.90
21267;DHT22;10791;53.108;18.326;2023-01-15T02:49:53;8.10;99.90
21267;DHT22;10791;53.108;18.326;2023-01-15T02:55:06;8.10;99.90
21267;DHT22;10791;53.108;18.326;2023-01-15T03:00:18;8.20;99.90
21267;DHT22;10791;53.108;18.326;2023-01-15T03:05:30;8.20;99.90
21267;DHT22;10791;53.108;18.326;2023-01-15T03:10:41;8.20;99.90
21267;DHT22;10791;53.108;18.326;2023-01-15T03:22:11;8.30;99.90
21267;DHT22;10791;53.108;18.326;2023-01-15T03:27:23;8.30;99.90
21267;DHT22;10791;53.108;18.326;2023-01-15T03:32:28;8.30;99.90
21267;DHT22;10791;53.108;18.326;2023-01-15T03:37:35;8.40;99.90
21267;DHT22;10791;53.108;18.326;2023-01-15T03:43:00;8.40;99.90
21267;DHT22;10791;53.108;18.326;2023-01-15T03:48:33;8.40;99.90
21267;DHT22;10791;53.108;18.326;2023-01-15T03:53:46;8.40;99.90
21267;DHT22;10791;53.108;18.326;2023-01-15T03:59:08;8.40;99.90
21267;DHT22;10791;53.108;18.326;2023-01-15T04:04:17;8.50;99.90
21267;DHT22;10791;53.108;18.326;2023-01-15T04:09:21;8.50;99.90
21267;DHT22;10791;53.108;18.326;2023-01-15T04:14:32;8.50;99.90
21267;DHT22;10791;53.108;18.326;2023-01-15T04:19:39;8.40;99.90
21267;DHT22;10791;53.108;18.326;2023-01-15T04:24:43;8.50;99.90
21267;DHT22;10791;53.108;18.326;2023-01-15T04:29:52;8.50;99.90
21267;DHT22;10791;53.108;18.326;2023-01-15T04:34:57;8.50;99.90
21267;DHT22;10791;53.108;18.326;2023-01-15T04:40:04;8.60;99.90
21267;DHT22;10791;53.108;18.326;2023-01-15T04:45:11;8.50;99.90
21267;DHT22;10791;53.108;18.326;2023-01-15T04:50:14;8.60;99.90
21267;DHT22;10791;53.108;18.326;2023-01-15T04:55:20;8.70;99.90
21267;DHT22;10791;53.108;18.326;2023-01-15T05:00:28;8.60;99.90
21267;DHT22;10791;53.108;18.326;2023-01-15T05:05:31;8.60;99.90
21267;DHT22;10791;53.108;18.326;2023-01-15T05:10:41;8.60;99.90
21267;DHT22;10791;53.108;18.326;2023-01-15T05:15:46;8.50;99.90
21267;DHT22;10791;53.108;18.326;2023-01-15T05:20:54;8.50;99.90
21267;DHT22;10791;53.108;18.326;2023-01-15T05:26:01;8.50;99.90
21267;DHT22;10791;53.108;18.326;2023-01-15T05:31:16;8.50;99.90
21267;DHT22;10791;53.108;18.326;2023-01-15T05:36:25;8.50;99.90
21267;DHT22;10791;53.108;18.326;2023-01-15T05:41:36;8.50;99.90
21267;DHT22;10791;53.108;18.326;2023-01-15T05:46:59;8.50;99.90
21267;DHT22;10791;53.108;18.326;2023-01-15T05:52:06;8.40;99.90
21267;DHT22;10791;53.108;18.326;2023-01-15T05:57:12;8.40;99.90
21267;DHT22;10791;53.108;18.326;2023-01-15T06:02:15;8.40;99.90
21267;DHT22;10791;53.108;18.326;2023-01-15T06:07:19;8.30;99.90
21267;DHT22;10791;53.108;18.326;2023-01-15T06:12:22;8.20;99.90
21267;DHT22;10791;53.108;18.326;2023-01-15T06:17:26;8.00;99.90
21267;DHT22;10791;53.108;18.326;2023-01-15T06:22:29;7.80;99.90
21267;DHT22;10791;53.108;18.326;2023-01-15T06:27:33;7.80;99.90
21267;DHT22;10791;53.108;18.326;2023-01-15T06:32:36;7.60;99.90
21267;DHT22;10791;53.108;18.326;2023-01-15T06:37:40;7.50;99.90
21267;DHT22;10791;53.108;18.326;2023-01-15T06:42:43;7.50;99.90
21267;DHT22;10791;53.108;18.326;2023-01-15T06:48:14;7.40;99.90
21267;DHT22;10791;53.108;18.326;2023-01-15T06:53:18;7.40;99.90
21267;DHT22;10791;53.108;18.326;2023-01-15T06:58:22;7.40;99.90
21267;DHT22;10791;53.108;18.326;2023-01-15T07:03:27;7.40;99.90
21267;DHT22;10791;53.108;18.326;2023-01-15T07:08:32;7.40;99.90
21267;DHT22;10791;53.108;18.326;2023-01-15T07:13:36;7.40;99.90
21267;DHT22;10791;53.108;18.326;2023-01-15T07:18:40;7.40;99.90
21267;DHT22;10791;53.108;18.326;2023-01-15T07:23:44;7.50;99.90
21267;DHT22;10791;53.108;18.326;2023-01-15T07:28:47;7.50;99.90
21267;DHT22;10791;53.108;18.326;2023-01-15T07:33:50;7.60;99.90
21267;DHT22;10791;53.108;18.326;2023-01-15T07:38:54;7.60;99.90
21267;DHT22;10791;53.108;18.326;2023-01-15T07:43:57;7.60;99.90
21267;DHT22;10791;53.108;18.326;2023-01-15T07:49:19;7.60;99.90
21267;DHT22;10791;53.108;18.326;2023-01-15T07:54:41;7.70;99.90
21267;DHT22;10791;53.108;18.326;2023-01-15T07:59:45;7.70;99.90
21267;DHT22;10791;53.108;18.326;2023-01-15T08:04:49;7.80;99.90
21267;DHT22;10791;53.108;18.326;2023-01-15T08:09:53;7.80;99.90
21267;DHT22;10791;53.108;18.326;2023-01-15T08:14:56;7.80;99.90
21267;DHT22;10791;53.108;18.326;2023-01-15T08:20:21;7.80;99.90
21267;DHT22;10791;53.108;18.326;2023-01-15T08:25:25;7.90;99.90
21267;DHT22;10791;53.108;18.326;2023-01-15T08:30:29;7.90;99.90
21267;DHT22;10791;53.108;18.326;2023-01-15T08:35:32;7.90;99.90
21267;DHT22;10791;53.108;18.326;2023-01-15T08:40:37;8.00;99.90
21267;DHT22;10791;53.108;18.326;2023-01-15T08:46:03;8.00;99.90
21267;DHT22;10791;53.108;18.326;2023-01-15T08:51:08;8.10;99.90
21267;DHT22;10791;53.108;18.326;2023-01-15T08:56:17;8.10;99.90
21267;DHT22;10791;53.108;18.326;2023-01-15T09:01:20;8.20;99.90
21267;DHT22;10791;53.108;18.326;2023-01-15T09:06:24;8.20;99.90
21267;DHT22;10791;53.108;18.326;2023-01-15T09:11:28;8.30;99.90
21267;DHT22;10791;53.108;18.326;2023-01-15T09:16:32;8.30;99.90
21267;DHT22;10791;53.108;18.326;2023-01-15T09:21:35;8.40;99.90
21267;DHT22;10791;53.108;18.326;2023-01-15T09:26:39;8.40;99.90
21267;DHT22;10791;53.108;18.326;2023-01-15T09:31:43;8.50;99.90
21267;DHT22;10791;53.108;18.326;2023-01-15T09:36:46;8.50;99.90
21267;DHT22;10791;53.108;18.326;2023-01-15T09:47:40;8.50;99.90
21267;DHT22;10791;53.108;18.326;2023-01-15T09:58:35;8.60;99.90
21267;DHT22;10791;53.108;18.326;2023-01-15T10:03:46;8.60;99.90
21267;DHT22;10791;53.108;18.326;2023-01-15T10:14:19;8.60;99.90
21267;DHT22;10791;53.108;18.326;2023-01-15T10:19:26;8.70;99.90
21267;DHT22;10791;53.108;18.326;2023-01-15T10:24:54;8.60;99.90
21267;DHT22;10791;53.108;18.326;2023-01-15T10:30:04;8.60;99.90
21267;DHT22;10791;53.108;18.326;2023-01-15T10:45:59;8.30;99.90
21267;DHT22;10791;53.108;18.326;2023-01-15T10:51:16;7.50;99.90
21267;DHT22;10791;53.108;18.326;2023-01-15T11:01:36;6.50;99.90
21267;DHT22;10791;53.108;18.326;2023-01-15T11:06:42;6.30;99.90
21267;DHT22;10791;53.108;18.326;2023-01-15T11:11:51;6.30;99.90
21267;DHT22;10791;53.108;18.326;2023-01-15T11:17:01;6.30;99.90
21267;DHT22;10791;53.108;18.326;2023-01-15T11:22:16;6.10;99.90
21267;DHT22;10791;53.108;18.326;2023-01-15T11:27:28;6.00;99.90
21267;DHT22;10791;53.108;18.326;2023-01-15T11:32:36;6.00;99.90
21267;DHT22;10791;53.108;18.326;2023-01-15T11:37:40;6.00;99.90
21267;DHT22;10791;53.108;18.326;2023-01-15T11:42:48;6.00;99.90
21267;DHT22;10791;53.108;18.326;2023-01-15T11:48:21;6.00;99.90
21267;DHT22;10791;53.108;18.326;2023-01-15T11:53:46;6.00;99.90
21267;DHT22;10791;53.108;18.326;2023-01-15T11:59:03;6.00;99.90
21267;DHT22;10791;53.108;18.326;2023-01-15T12:11:14;6.00;99.90
21267;DHT22;10791;53.108;18.326;2023-01-15T12:16:36;6.10;99.90
21267;DHT22;10791;53.108;18.326;2023-01-15T12:32:20;6.00;99.90
21267;DHT22;10791;53.108;18.326;2023-01-15T12:37:31;5.90;99.90
21267;DHT22;10791;53.108;18.326;2023-01-15T12:42:37;5.80;99.90
21267;DHT22;10791;53.108;18.326;2023-01-15T12:48:15;5.80;99.90
21267;DHT22;10791;53.108;18.326;2023-01-15T12:53:46;5.80;99.90
21267;DHT22;10791;53.108;18.326;2023-01-15T13:05:06;5.90;99.90
21267;DHT22;10791;53.108;18.326;2023-01-15T13:14:48;6.00;99.90
21267;DHT22;10791;53.108;18.326;2023-01-15T13:20:13;6.00;99.90
21267;DHT22;10791;53.108;18.326;2023-01-15T13:26:09;5.90;99.90
21267;DHT22;10791;53.108;18.326;2023-01-15T13:36:40;5.90;99.90
21267;DHT22;10791;53.108;18.326;2023-01-15T13:41:52;5.90;99.90
21267;DHT22;10791;53.108;18.326;2023-01-15T13:47:22;5.80;99.90
21267;DHT22;10791;53.108;18.326;2023-01-15T13:52:30;5.80;99.90
21267;DHT22;10791;53.108;18.326;2023-01-15T13:57:37;5.80;99.90
21267;DHT22;10791;53.108;18.326;2023-01-15T14:02:52;5.70;99.90
21267;DHT22;10791;53.108;18.326;2023-01-15T14:07:57;5.70;99.90
21267;DHT22;10791;53.108;18.326;2023-01-15T14:29:48;5.60;99.90
21267;DHT22;10791;53.108;18.326;2023-01-15T14:34:58;5.60;99.90
21267;DHT22;10791;53.108;18.326;2023-01-15T14:40:23;5.60;99.90
21267;DHT22;10791;53.108;18.326;2023-01-15T14:45:33;5.50;99.90
21267;DHT22;10791;53.108;18.326;2023-01-15T14:50:47;5.60;99.90
21267;DHT22;10791;53.108;18.326;2023-01-15T15:01:51;5.40;99.90
21267;DHT22;10791;53.108;18.326;2023-01-15T15:12:16;5.40;99.90
21267;DHT22;10791;53.108;18.326;2023-01-15T15:17:39;5.40;99.90
21267;DHT22;10791;53.108;18.326;2023-01-15T15:22:50;5.30;99.90
21267;DHT22;10791;53.108;18.326;2023-01-15T15:28:10;5.30;99.90
21267;DHT22;10791;53.108;18.326;2023-01-15T15:33:27;5.30;99.90
21267;DHT22;10791;53.108;18.326;2023-01-15T15:38:34;5.30;99.90
21267;DHT22;10791;53.108;18.326;2023-01-15T15:43:54;5.30;99.90
21267;DHT22;10791;53.108;18.326;2023-01-15T15:49:18;5.20;99.90
21267;DHT22;10791;53.108;18.326;2023-01-15T15:54:24;5.20;99.90
21267;DHT22;10791;53.108;18.326;2023-01-15T15:59:37;5.20;99.90
21267;DHT22;10791;53.108;18.326;2023-01-15T16:04:52;5.20;99.90
21267;DHT22;10791;53.108;18.326;2023-01-15T16:15:05;5.20;99.90
21267;DHT22;10791;53.108;18.326;2023-01-15T16:20:16;5.20;99.90
21267;DHT22;10791;53.108;18.326;2023-01-15T16:25:38;5.10;99.90
21267;DHT22;10791;53.108;18.326;2023-01-15T16:30:44;5.10;99.90
21267;DHT22;10791;53.108;18.326;2023-01-15T16:35:55;5.10;99.90
21267;DHT22;10791;53.108;18.326;2023-01-15T16:41:01;5.00;99.90
21267;DHT22;10791;53.108;18.326;2023-01-15T16:46:16;5.00;99.90
21267;DHT22;10791;53.108;18.326;2023-01-15T16:51:36;5.00;99.90
21267;DHT22;10791;53.108;18.326;2023-01-15T16:56:52;5.00;99.90
21267;DHT22;10791;53.108;18.326;2023-01-15T17:02:14;4.90;99.90
21267;DHT22;10791;53.108;18.326;2023-01-15T17:07:38;5.00;99.90
21267;DHT22;10791;53.108;18.326;2023-01-15T17:12:43;5.00;99.90
21267;DHT22;10791;53.108;18.326;2023-01-15T17:17:52;4.90;99.90
21267;DHT22;10791;53.108;18.326;2023-01-15T17:23:11;5.00;99.90
21267;DHT22;10791;53.108;18.326;2023-01-15T17:28:33;4.90;99.90
21267;DHT22;10791;53.108;18.326;2023-01-15T17:33:37;5.00;99.90
21267;DHT22;10791;53.108;18.326;2023-01-15T17:38:43;5.00;99.90
21267;DHT22;10791;53.108;18.326;2023-01-15T17:43:49;4.90;99.90
21267;DHT22;10791;53.108;18.326;2023-01-15T17:48:55;5.00;99.90
21267;DHT22;10791;53.108;18.326;2023-01-15T17:54:00;4.90;99.90
21267;DHT22;10791;53.108;18.326;2023-01-15T17:59:07;5.00;99.90
21267;DHT22;10791;53.108;18.326;2023-01-15T18:04:52;5.00;99.90
21267;DHT22;10791;53.108;18.326;2023-01-15T18:10:23;5.00;99.90
21267;DHT22;10791;53.108;18.326;2023-01-15T18:15:40;5.00;99.90
21267;DHT22;10791;53.108;18.326;2023-01-15T18:20:52;5.00;99.90
21267;DHT22;10791;53.108;18.326;2023-01-15T18:26:09;5.00;99.90
21267;DHT22;10791;53.108;18.326;2023-01-15T18:31:16;5.00;99.90
21267;DHT22;10791;53.108;18.326;2023-01-15T18:36:24;5.00;99.90
21267;DHT22;10791;53.108;18.326;2023-01-15T18:41:30;5.00;99.90
21267;DHT22;10791;53.108;18.326;2023-01-15T18:46:35;5.00;99.90
21267;DHT22;10791;53.108;18.326;2023-01-15T18:51:48;5.00;99.90
21267;DHT22;10791;53.108;18.326;2023-01-15T18:57:16;5.00;99.90
21267;DHT22;10791;53.108;18.326;2023-01-15T19:02:24;5.00;99.90
21267;DHT22;10791;53.108;18.326;2023-01-15T19:07:29;5.00;99.90
21267;DHT22;10791;53.108;18.326;2023-01-15T19:12:38;5.00;99.90
21267;DHT22;10791;53.108;18.326;2023-01-15T19:17:47;5.00;99.90
21267;DHT22;10791;53.108;18.326;2023-01-15T19:23:10;5.00;99.90
21267;DHT22;10791;53.108;18.326;2023-01-15T19:28:19;4.90;99.90
21267;DHT22;10791;53.108;18.326;2023-01-15T19:33:27;4.90;99.90
21267;DHT22;10791;53.108;18.326;2023-01-15T19:38:34;4.90;99.90
21267;DHT22;10791;53.108;18.326;2023-01-15T19:43:52;4.90;99.90
21267;DHT22;10791;53.108;18.326;2023-01-15T19:49:19;4.90;99.90
21267;DHT22;10791;53.108;18.326;2023-01-15T19:54:48;4.90;99.90
21267;DHT22;10791;53.108;18.326;2023-01-15T20:00:06;4.80;99.90
21267;DHT22;10791;53.108;18.326;2023-01-15T20:05:17;4.80;99.90
21267;DHT22;10791;53.108;18.326;2023-01-15T20:10:24;4.80;99.90
21267;DHT22;10791;53.108;18.326;2023-01-15T20:15:31;4.80;99.90
21267;DHT22;10791;53.108;18.326;2023-01-15T20:20:37;4.80;99.90
21267;DHT22;10791;53.108;18.326;2023-01-15T20:25:44;4.70;99.90
21267;DHT22;10791;53.108;18.326;2023-01-15T20:30:53;4.70;99.90
21267;DHT22;10791;53.108;18.326;2023-01-15T20:36:03;4.70;99.90
21267;DHT22;10791;53.108;18.326;2023-01-15T20:41:14;4.70;99.90
21267;DHT22;10791;53.108;18.326;2023-01-15T20:46:39;4.60;99.90
21267;DHT22;10791;53.108;18.326;2023-01-15T20:51:43;4.70;99.90
21267;DHT22;10791;53.108;18.326;2023-01-15T20:56:56;4.70;99.90
21267;DHT22;10791;53.108;18.326;2023-01-15T21:02:01;4.70;99.90
21267;DHT22;10791;53.108;18.326;2023-01-15T21:07:05;4.80;99.90
21267;DHT22;10791;53.108;18.326;2023-01-15T21:12:09;4.80;99.90
21267;DHT22;10791;53.108;18.326;2023-01-15T21:17:13;4.80;99.90
21267;DHT22;10791;53.108;18.326;2023-01-15T21:22:21;4.70;99.90
21267;DHT22;10791;53.108;18.326;2023-01-15T21:27:27;4.70;99.90
21267;DHT22;10791;53.108;18.326;2023-01-15T21:32:33;4.70;99.90
21267;DHT22;10791;53.108;18.326;2023-01-15T21:37:37;4.70;99.90
21267;DHT22;10791;53.108;18.326;2023-01-15T21:42:42;4.60;99.90
21267;DHT22;10791;53.108;18.326;2023-01-15T21:48:05;4.60;99.90
21267;DHT22;10791;53.108;18.326;2023-01-15T21:53:09;4.60;99.90
21267;DHT22;10791;53.108;18.326;2023-01-15T21:58:14;4.60;99.90
21267;DHT22;10791;53.108;18.326;2023-01-15T22:03:17;4.60;99.90
21267;DHT22;10791;53.108;18.326;2023-01-15T22:08:21;4.60;99.90
21267;DHT22;10791;53.108;18.326;2023-01-15T22:13:24;4.60;99.90
21267;DHT22;10791;53.108;18.326;2023-01-15T22:18:28;4.60;99.90
21267;DHT22;10791;53.108;18.326;2023-01-15T22:23:32;4.60;99.90
21267;DHT22;10791;53.108;18.326;2023-01-15T22:28:36;4.60;99.90
21267;DHT22;10791;53.108;18.326;2023-01-15T22:33:40;4.60;99.90
21267;DHT22;10791;53.108;18.326;2023-01-15T22:38:43;4.50;99.90
21267;DHT22;10791;53.108;18.326;2023-01-15T22:43:48;4.40;99.90
21267;DHT22;10791;53.108;18.326;2023-01-15T22:48:51;4.50;99.90
21267;DHT22;10791;53.108;18.326;2023-01-15T22:53:56;4.50;99.90
21267;DHT22;10791;53.108;18.326;2023-01-15T22:59:00;4.50;99.90
21267;DHT22;10791;53.108;18.326;2023-01-15T23:04:17;4.50;99.90
21267;DHT22;10791;53.108;18.326;2023-01-15T23:09:22;4.50;99.90
21267;DHT22;10791;53.108;18.326;2023-01-15T23:14:26;4.50;99.90
21267;DHT22;10791;53.108;18.326;2023-01-15T23:19:30;4.50;99.90
21267;DHT22;10791;53.108;18.326;2023-01-15T23:24:33;4.50;99.90
21267;DHT22;10791;53.108;18.326;2023-01-15T23:29:37;4.50;99.90
21267;DHT22;10791;53.108;18.326;2023-01-15T23:34:40;4.50;99.90
21267;DHT22;10791;53.108;18.326;2023-01-15T23:39:44;4.50;99.90
21267;DHT22;10791;53.108;18.326;2023-01-15T23:44:47;4.60;99.90
21267;DHT22;10791;53.108;18.326;2023-01-15T23:50:09;4.60;99.90
21267;DHT22;10791;53.108;18.326;2023-01-15T23:55:13;4.60;99.90
